KSMO/SMO METAR and TAF weather

Enter ICAO airport designator
Station Type Date Time Source
KSMO METAR 2020/01/28 04:51 UTC NOAA

KSMO 280451Z AUTO 35011G21KT 290V020 10SM CLR 19/01 A3018 RMK AO2 SLP220 T01940006


Station Type Date Time Source
KSMO Decoded METAR 2020/01/28 04:51 UTC NOAA

SANTA MONICA MUNICIPAL AIRPORT , CA, United States (KSMO) 34-01N 118-27W 57M
Jan 27, 2020 - 11:51 PM EST / 2020.01.28 0451 UTC
Wind: from the N (350 degrees) at 13 MPH (11 KT) gusting to 24 MPH (21 KT) (direction variable):0
Visibility: 10 mile(s):0
Sky conditions: clear
Temperature: 66.9 F (19.4 C)
Dew Point: 33.1 F (0.6 C)
Relative Humidity: 28%
Pressure (altimeter): 30.18 in. Hg (1022 hPa)
ob: KSMO 280451Z AUTO 35011G21KT 290V020 10SM CLR 19/01 A3018 RMK AO2 SLP220 T01940006
cycle: 5

Station Type Date Time Source
KSMO TAF 2020/01/28 04:46 UTC NOAA

TAF
AMD KSMO 280346Z 2804/2824 35010KT P6SM SKC
FM280600 02005KT P6SM SKC
FM281200 VRB03KT P6SM SKC
FM282000 24008KT P6SM FEW250

Example: see airport list